Latest Weather Observations for Lake Julius

IDQ60801

Issued at 4:02 pm EST Wednesday 5 August 2015 (issued every 30 minutes, with the page automatically refreshed every 10 minutes)

About weather observations | Map of weather stations | Latest weather observations for QLD | Other Formats
Station Details ID: 029181 Name: LAKE JULIUS AWS Lat: -20.12 Lon: 139.73 Height: 237.0 m
Data from the previous 72 hours. | See also: Recent months at Lake Julius
Date/Time
EST
Temp
°C
App
Temp
°C
Dew
Point
Rel
Hum
%
Delta-T
°C
Wind Press
QNH
hPa
Press
MSL
hPa
Rain
since 9 am
mm
Dir
 
Spd
km/h
Gust
km/h
Spd
kts
Gust
kts
05/04:00pm 23.6 18.3 -7.4 12 12.4 SE 13 24 7 13 - - 0.0
05/03:30pm 23.1 17.8 -6.8 13 12.0 SSE 13 26 7 14 - - 0.0
05/03:00pm 22.1 15.7 -6.6 14 11.5 SSE 19 30 10 16 - - 0.0
05/02:30pm 21.9 15.0 -5.9 15 11.3 SSE 22 33 12 18 - - 0.0
05/02:00pm 21.4 15.6 -4.6 17 10.7 SSE 17 28 9 15 - - 0.0
05/01:30pm 22.1 18.1 -2.6 19 10.7 SSE 9 24 5 13 - - 0.0
05/01:00pm 20.9 15.7 -2.9 20 10.1 S 15 26 8 14 - - 0.0
05/12:30pm 20.3 14.7 -2.7 21 9.8 SE 17 33 9 18 - - 0.0
05/12:00pm 19.3 14.2 -2.3 23 9.2 SSE 15 32 8 17 - - 0.0
05/11:30am 18.4 12.9 -2.0 25 8.6 SSE 17 32 9 17 - - 0.0
05/11:00am 18.1 12.3 -1.7 26 8.4 SE 19 39 10 21 - - 0.0
05/10:30am 16.8 10.4 -1.8 28 7.8 SSE 22 35 12 19 - - 0.0
05/10:00am 16.4 9.2 -1.7 29 7.6 SSE 26 37 14 20 - - 0.0
05/09:40am 15.9 8.4 -1.2 31 7.2 SSE 28 48 15 26 - - 0.0
05/09:30am 16.0 8.9 -1.5 30 7.3 SSE 26 43 14 23 - - 0.0
05/09:00am 15.6 9.7 -1.0 32 7.0 SSE 20 33 11 18 - - 0.0
05/08:30am 14.6 8.2 -1.5 33 6.6 SSE 22 37 12 20 - - 0.0
05/08:00am 14.1 8.7 -1.5 34 6.4 SSE 17 28 9 15 - - 0.0
05/07:30am 13.7 8.7 -1.5 35 6.2 SSE 15 26 8 14 - - 0.0
05/07:00am 13.6 8.5 -1.6 35 6.2 SSE 15 24 8 13 - - 0.0
05/06:30am 13.8 8.7 -1.8 34 6.3 SSE 15 20 8 11 - - 0.0
05/06:00am 13.9 8.5 -1.7 34 6.4 SSE 17 28 9 15 - - 0.0
05/05:30am 14.2 8.7 -1.8 33 6.5 SSE 17 28 9 15 - - 0.0
05/05:00am 14.4 9.3 -1.6 33 6.6 SSE 15 24 8 13 - - 0.0
05/04:30am 14.5 9.1 -1.6 33 6.6 S 17 24 9 13 - - 0.0
05/04:00am 14.8 9.8 -1.3 33 6.7 S 15 28 8 15 - - 0.0
05/03:30am 15.0 9.6 -1.1 33 6.7 SSE 17 28 9 15 - - 0.0
05/03:00am 15.3 9.5 -1.3 32 6.9 SSE 19 33 10 18 - - 0.0
05/02:30am 15.5 10.0 -2.0 30 7.2 SSE 17 24 9 13 - - 0.0
05/02:00am 15.7 10.2 -2.3 29 7.4 SSE 17 32 9 17 - - 0.0
05/01:30am 15.8 11.4 -2.6 28 7.5 SSE 11 19 6 10 - - 0.0
05/01:00am 15.9 11.4 -3.6 26 7.8 SSE 11 20 6 11 - - 0.0
05/12:30am 15.8 11.9 -4.2 25 7.9 S 7 11 4 6 - - 0.0
05/12:00am 16.4 12.2 -4.2 24 8.2 S 9 13 5 7 - - 0.0
 
Date/Time
EST
Temp
°C
App
Temp
°C
Dew
Point
Rel
Hum
%
Delta-T
°C
Wind Press
QNH
hPa
Press
MSL
hPa
Rain
since 9 am
mm
Dir
 
Spd
km/h
Gust
km/h
Spd
kts
Gust
kts
04/11:30pm 17.0 12.0 -4.3 23 8.5 S 13 19 7 10 - - 0.0
04/11:00pm 17.5 12.1 -4.4 22 8.7 S 15 24 8 13 - - 0.0
04/10:30pm 17.7 12.2 -5.5 20 9.1 S 15 24 8 13 - - 0.0
04/10:00pm 18.4 12.1 -5.6 19 9.4 SSE 19 30 10 16 - - 0.0
04/09:30pm 18.6 13.5 -5.4 19 9.5 S 13 20 7 11 - - 0.0
04/09:00pm 18.9 13.4 -5.2 19 9.6 S 15 28 8 15 - - 0.0
04/08:30pm 18.6 13.9 -4.8 20 9.4 S 11 20 6 11 - - 0.0
04/08:00pm 19.2 14.9 -5.0 19 9.7 S 9 15 5 8 - - 0.0
04/07:30pm 19.3 15.0 -4.9 19 9.7 SSE 9 15 5 8 - - 0.0
04/07:00pm 20.1 15.4 -4.9 18 10.1 SSE 11 20 6 11 - - 0.0
04/06:30pm 20.5 15.8 -4.6 18 10.3 S 11 17 6 9 - - 0.0
04/06:00pm 21.1 14.6 -5.7 16 10.8 S 20 32 11 17 - - 0.0
04/05:30pm 21.7 16.2 -5.2 16 11.0 SSE 15 24 8 13 - - 0.0
04/05:00pm 22.1 15.7 -6.6 14 11.5 SSE 19 32 10 17 - - 0.0
04/04:30pm 22.2 16.2 -6.5 14 11.5 S 17 33 9 18 - - 0.0
04/04:00pm 22.5 17.4 -5.4 15 11.5 S 13 22 7 12 - - 0.0
04/03:30pm 22.1 16.1 -6.6 14 11.5 S 17 30 9 16 - - 0.0
04/03:00pm 21.8 15.3 -5.9 15 11.2 SSE 20 32 11 17 - - 0.0
04/02:30pm 22.4 17.0 -4.6 16 11.3 SSE 15 28 8 15 - - 0.0
04/02:00pm 21.1 15.7 -4.9 17 10.7 S 15 28 8 15 - - 0.0
04/01:30pm 20.7 15.4 -3.7 19 10.2 SSE 15 30 8 16 - - 0.0
04/01:00pm 19.5 14.5 -4.7 19 9.8 SSE 13 32 7 17 - - 0.0
04/12:30pm 18.9 12.8 -3.9 21 9.3 SE 19 33 10 18 - - 0.0
04/12:00pm 18.7 12.8 -2.3 24 8.9 S 19 33 10 18 - - 0.0
04/11:30am 17.7 11.8 -2.5 25 8.4 SSE 19 35 10 19 - - 0.0
04/11:00am 17.2 11.3 -2.4 26 8.1 SSE 19 33 10 18 - - 0.0
04/10:30am 16.5 10.0 -2.5 27 7.8 SSE 22 33 12 18 - - 0.0
04/10:00am 16.1 9.7 -1.9 29 7.5 S 22 33 12 18 - - 0.0
04/09:33am 15.6 7.7 -1.9 30 7.2 SSE 30 48 16 26 - - 0.0
04/09:30am 15.7 7.4 -1.8 30 7.3 SSE 32 48 17 26 - - 0.0
04/09:24am 15.2 7.6 -2.2 30 7.1 SSE 28 46 15 25 - - 0.0
04/09:00am 14.9 8.4 -2.1 31 6.9 SSE 22 43 12 23 - - 0.0
04/08:30am 14.3 6.4 -1.7 33 6.6 SSE 30 44 16 24 - - 0.0
04/08:00am 14.0 8.5 -2.0 33 6.5 SSE 17 35 9 19 - - 0.0
04/07:30am 13.5 7.0 -2.4 33 6.4 SSE 22 32 12 17 - - 0.0
04/07:00am 13.5 8.0 -2.4 33 6.4 SSE 17 24 9 13 - - 0.0
04/06:30am 13.8 7.7 -2.6 32 6.6 S 20 32 11 17 - - 0.0
04/06:00am 14.0 7.5 -2.8 31 6.7 S 22 37 12 20 - - 0.0
04/05:30am 14.2 8.2 -3.1 30 6.9 SSE 19 32 10 17 - - 0.0
04/05:00am 14.4 8.8 -2.9 30 6.9 S 17 20 9 11 - - 0.0
04/04:30am 14.7 9.5 -2.7 30 7.0 S 15 26 8 14 - - 0.0
04/04:00am 14.8 10.1 -2.1 31 6.9 S 13 24 7 13 - - 0.0
04/03:30am 15.1 10.3 -2.8 29 7.2 S 13 22 7 12 - - 0.0
04/03:00am 15.6 9.6 -2.8 28 7.5 S 19 30 10 16 - - 0.0
04/02:30am 16.0 10.4 -3.0 27 7.7 S 17 28 9 15 - - 0.0
04/02:00am 16.4 10.5 -2.6 27 7.8 S 19 30 10 16 - - 0.0
04/01:30am 16.9 10.8 -2.7 26 8.1 S 20 32 11 17 - - 0.0
04/01:00am 17.4 11.2 -2.8 25 8.3 S 20 32 11 17 - - 0.0
04/12:30am 17.9 12.0 -2.4 25 8.5 S 19 28 10 15 - - 0.0
04/12:00am 18.4 13.4 -0.9 27 8.4 S 15 24 8 13 - - 0.0
 
Date/Time
EST
Temp
°C
App
Temp
°C
Dew
Point
Rel
Hum
%
Delta-T
°C
Wind Press
QNH
hPa
Press
MSL
hPa
Rain
since 9 am
mm
Dir
 
Spd
km/h
Gust
km/h
Spd
kts
Gust
kts
03/11:30pm 18.9 14.4 -0.5 27 8.5 S 13 22 7 12 - - 0.0
03/11:00pm 19.2 15.2 0.3 28 8.4 S 11 20 6 11 - - 0.0
03/10:30pm 19.8 14.7 0.8 28 8.6 S 17 30 9 16 - - 0.0
03/10:00pm 20.3 15.6 1.2 28 8.8 S 15 22 8 12 - - 0.0
03/09:30pm 20.7 16.0 1.1 27 9.0 S 15 24 8 13 - - 0.0
03/09:00pm 21.2 16.7 2.0 28 9.0 S 15 24 8 13 - - 0.0
03/08:30pm 21.9 16.6 2.1 27 9.4 S 19 32 10 17 - - 0.0
03/08:00pm 22.1 17.7 2.8 28 9.3 S 15 26 8 14 - - 0.0
03/07:30pm 22.9 18.2 2.9 27 9.7 S 17 30 9 16 - - 0.0
03/07:00pm 23.4 18.7 3.4 27 9.8 S 17 24 9 13 - - 0.0
03/06:30pm 24.0 19.3 3.3 26 10.2 S 17 32 9 17 - - 0.0
03/06:00pm 24.8 19.7 2.9 24 10.7 S 19 32 10 17 - - 0.0
03/05:30pm 25.8 20.0 2.5 22 11.4 SSW 22 30 12 16 - - 0.0
03/05:00pm 26.3 21.0 2.9 22 11.6 S 20 32 11 17 - - 0.0
03/04:30pm 26.8 21.7 3.3 22 11.8 S 19 28 10 15 - - 0.0
03/04:00pm 26.8 21.4 2.7 21 11.9 S 20 32 11 17 - - 0.0
03/03:30pm 27.0 22.2 2.8 21 12.0 S 17 30 9 16 - - 0.0
03/03:00pm 26.9 22.1 2.7 21 12.0 S 17 26 9 14 - - 0.0
03/02:30pm 26.8 21.6 3.3 22 11.8 S 20 30 11 16 - - 0.0
03/02:00pm 26.8 21.9 4.0 23 11.6 SSW 19 28 10 15 - - 0.0
03/01:30pm 26.0 21.4 3.9 24 11.1 S 17 26 9 14 - - 0.0
03/01:00pm 25.9 21.8 4.4 25 10.9 S 15 24 8 13 - - 0.0
03/12:30pm 24.8 20.4 4.5 27 10.3 S 17 28 9 15 - - 0.0
03/12:00pm 23.9 19.5 4.8 29 9.6 S 17 28 9 15 - - 0.0
03/11:30am 23.0 18.6 5.0 31 9.1 SSW 17 24 9 13 - - 0.0
03/11:00am 22.1 18.2 5.5 34 8.4 S 15 20 8 11 - - 0.0
03/10:30am 21.0 16.4 5.4 36 7.8 S 19 26 10 14 - - 0.0
03/10:00am 20.3 15.7 5.5 38 7.4 S 19 28 10 15 - - 0.0
03/09:30am 19.3 14.5 5.4 40 6.9 S 20 33 11 18 - - 0.0
03/09:00am 18.6 13.8 5.5 42 6.5 S 20 30 11 16 - - 0.0
03/08:30am 18.0 14.2 5.6 44 6.1 S 15 22 8 12 - - 0.0
03/08:00am 17.5 14.5 5.8 46 5.8 SSW 11 17 6 9 - - 0.0
03/07:30am 17.1 12.5 5.7 47 5.6 S 19 35 10 19 - - 0.0
03/07:00am 17.3 13.5 5.9 47 5.6 SSW 15 26 8 14 - - 0.0
03/06:30am 17.7 13.9 5.9 46 5.8 SSW 15 20 8 11 - - 0.0
03/06:00am 18.4 14.3 6.3 45 6.1 S 17 30 9 16 - - 0.0
03/05:30am 18.7 15.0 6.5 45 6.1 S 15 22 8 12 - - 0.0
03/05:00am 19.4 15.4 6.5 43 6.5 SSW 17 24 9 13 - - 0.0
03/04:30am 19.9 16.2 6.3 41 6.9 S 15 22 8 12 - - 0.0
03/04:00am 20.4 16.6 5.6 38 7.4 SSW 15 26 8 14 - - 0.0
03/03:30am 21.1 16.3 4.6 34 8.1 SSW 19 32 10 17 - - 0.0
03/03:00am 21.6 17.2 2.8 29 9.0 S 15 26 8 14 - - 0.0
03/02:30am 21.8 17.6 1.5 26 9.5 S 13 17 7 9 - - 0.0
03/02:00am 21.6 17.9 2.3 28 9.1 SSW 11 15 6 8 - - 0.0
03/01:30am 21.1 17.6 5.5 36 7.8 SSW 13 17 7 9 - - 0.0
03/01:00am 18.5 15.4 8.7 53 5.1 S 15 24 8 13 - - 0.0
03/12:30am 18.1 17.5 10.5 61 4.1 SSW 4 4 2 2 - - 0.0
03/12:00am 18.8 18.4 9.8 56 4.8 SSW 2 2 1 1 - - 0.0
 
Date/Time
EST
Temp
°C
App
Temp
°C
Dew
Point
Rel
Hum
%
Delta-T
°C
Wind Press
QNH
hPa
Press
MSL
hPa
Rain
since 9 am
mm
Dir
 
Spd
km/h
Gust
km/h
Spd
kts
Gust
kts
02/11:30pm 18.6 17.8 10.9 61 4.2 SSW 6 7 3 4 - - 0.0
02/11:00pm 19.5 18.5 11.0 58 4.7 SSW 7 11 4 6 - - 0.0
02/10:30pm 19.3 19.0 11.6 61 4.3 SSW 4 4 2 2 - - 0.0
02/10:00pm 20.0 19.5 12.0 60 4.5 SSW 6 7 3 4 - - 0.0
02/09:30pm 21.0 20.5 12.2 57 5.0 SSW 6 6 3 3 - - 0.0
02/09:00pm 21.5 20.7 11.2 52 5.8 SSW 6 6 3 3 - - 0.0
02/08:30pm 22.8 23.0 10.6 46 6.8 CALM 0 0 0 0 - - 0.0
02/08:00pm 23.5 23.1 8.4 38 8.1 CALM 0 0 0 0 - - 0.0
02/07:30pm 25.4 24.3 5.1 27 10.4 CALM 0 0 0 0 - - 0.0
02/07:00pm 26.4 25.2 4.8 25 11.1 CALM 0 0 0 0 - - 0.0
02/06:30pm 28.2 26.7 5.1 23 12.0 S 2 4 1 2 - - 0.0
02/06:00pm 29.4 28.1 4.1 20 13.1 CALM 0 0 0 0 - - 0.0
02/05:30pm 30.6 28.6 4.4 19 13.7 SSW 4 6 2 3 - - 0.0
02/05:00pm 30.5 28.5 4.3 19 13.7 S 4 9 2 5 - - 0.0
02/04:30pm 30.9 28.8 3.8 18 14.0 WSW 4 11 2 6 - - 0.0

Other Formats:

Comma delimited format used in spreadsheet applications
http://www.bom.gov.au/fwo/IDQ60801/IDQ60801.94348.axf

JavaScript Object Notation format (JSON) in row-major order
http://www.bom.gov.au/fwo/IDQ60801/IDQ60801.94348.json